createdAt,value
2018-07-30T00:00:55.375Z,0.00
2018-07-30T00:01:55.294Z,0.00
2018-07-30T00:02:55.285Z,0.00
2018-07-30T00:03:55.277Z,0.00
2018-07-30T00:04:55.279Z,0.00
2018-07-30T00:05:55.321Z,0.00
2018-07-30T00:06:55.250Z,0.00
2018-07-30T00:07:55.238Z,0.00
2018-07-30T00:08:55.225Z,0.00
2018-07-30T00:09:55.214Z,0.00
2018-07-30T00:10:55.640Z,0.00
2018-07-30T00:11:55.194Z,0.00
2018-07-30T00:12:55.183Z,0.00
2018-07-30T00:13:55.170Z,0.00
2018-07-30T00:14:55.164Z,0.00
2018-07-30T00:15:55.220Z,0.00
2018-07-30T00:16:55.142Z,0.00
2018-07-30T00:17:55.134Z,0.00
2018-07-30T00:18:55.122Z,0.00
2018-07-30T00:19:55.115Z,0.00
2018-07-30T00:20:55.164Z,0.00
2018-07-30T00:21:55.092Z,0.00
2018-07-30T00:22:55.078Z,0.00
2018-07-30T00:23:55.072Z,0.00
2018-07-30T00:24:55.059Z,0.00
2018-07-30T00:25:55.114Z,0.00
2018-07-30T00:26:55.039Z,0.00
2018-07-30T00:27:55.026Z,0.00
2018-07-30T00:28:55.023Z,0.00
2018-07-30T00:29:55.009Z,0.00
2018-07-30T00:30:55.062Z,0.00
2018-07-30T00:31:55.551Z,0.00
2018-07-30T00:32:54.976Z,0.00
2018-07-30T00:33:54.965Z,0.00
2018-07-30T00:34:54.956Z,0.00
2018-07-30T00:35:54.948Z,0.00
2018-07-30T00:36:55.003Z,0.00
2018-07-30T00:37:54.929Z,0.00
2018-07-30T00:38:54.911Z,0.00
2018-07-30T00:39:54.901Z,0.00
2018-07-30T00:40:54.892Z,0.00
2018-07-30T00:41:54.961Z,0.00
2018-07-30T00:42:54.873Z,0.00
2018-07-30T00:43:54.862Z,0.00
2018-07-30T00:44:54.851Z,0.00
2018-07-30T00:45:54.842Z,0.00
2018-07-30T00:46:54.897Z,0.00
2018-07-30T00:47:54.828Z,0.00
2018-07-30T00:48:54.809Z,0.00
2018-07-30T00:49:54.801Z,0.00
2018-07-30T00:50:54.790Z,0.00
2018-07-30T00:51:54.845Z,0.00
2018-07-30T00:52:55.549Z,0.00
2018-07-30T00:53:54.756Z,0.00
2018-07-30T00:54:54.765Z,0.00
2018-07-30T00:55:54.740Z,0.00
2018-07-30T00:56:55.132Z,0.00
2018-07-30T00:57:54.724Z,0.00
2018-07-30T00:58:54.707Z,0.00
2018-07-30T00:59:54.695Z,0.00
2018-07-30T01:00:54.685Z,0.00
2018-07-30T01:01:54.743Z,0.00
2018-07-30T01:02:54.668Z,0.00
2018-07-30T01:03:54.654Z,0.00
2018-07-30T01:04:54.643Z,0.00
2018-07-30T01:05:54.632Z,0.00
2018-07-30T01:06:54.692Z,0.00
2018-07-30T01:07:54.616Z,0.00
2018-07-30T01:08:54.601Z,0.00
2018-07-30T01:09:54.593Z,0.00
2018-07-30T01:10:54.582Z,0.00
2018-07-30T01:11:54.638Z,0.00
2018-07-30T01:12:54.563Z,0.00
2018-07-30T01:13:54.551Z,0.00
2018-07-30T01:14:54.540Z,0.00
2018-07-30T01:16:02.649Z,0.00
2018-07-30T01:16:54.584Z,0.00
2018-07-30T01:17:54.520Z,0.00
2018-07-30T01:18:54.496Z,0.00
2018-07-30T01:19:54.491Z,0.00
2018-07-30T01:20:54.477Z,0.00
2018-07-30T01:21:54.529Z,0.00
2018-07-30T01:22:54.457Z,0.00
2018-07-30T01:23:54.447Z,0.00
2018-07-30T01:24:54.438Z,0.00
2018-07-30T01:25:54.421Z,0.00
2018-07-30T01:26:54.479Z,0.00
2018-07-30T01:27:54.405Z,0.00
2018-07-30T01:28:54.394Z,0.00
2018-07-30T01:29:54.388Z,0.00
2018-07-30T01:30:54.374Z,0.00
2018-07-30T01:31:54.427Z,0.00
2018-07-30T01:32:54.352Z,0.00
2018-07-30T01:33:54.344Z,0.00
2018-07-30T01:34:54.333Z,0.00
2018-07-30T01:35:54.325Z,0.00
2018-07-30T01:36:54.658Z,0.00
2018-07-30T01:37:54.303Z,0.00
2018-07-30T01:38:54.288Z,0.00
2018-07-30T01:39:54.277Z,0.00
2018-07-30T01:40:54.266Z,0.00
2018-07-30T01:41:54.324Z,0.00
2018-07-30T01:42:54.247Z,0.00
2018-07-30T01:43:54.236Z,0.00
2018-07-30T01:44:54.225Z,0.00
2018-07-30T01:45:54.216Z,0.00
2018-07-30T01:46:54.264Z,0.00
2018-07-30T01:47:54.192Z,0.00
2018-07-30T01:48:54.186Z,0.00
2018-07-30T01:49:54.175Z,0.00
2018-07-30T01:50:54.161Z,0.00
2018-07-30T01:51:54.217Z,0.00
2018-07-30T01:52:54.144Z,0.00
2018-07-30T01:53:54.131Z,0.00
2018-07-30T01:54:54.121Z,0.00
2018-07-30T01:55:54.110Z,0.00
2018-07-30T01:56:54.164Z,0.00
2018-07-30T01:57:56.080Z,0.00
2018-07-30T01:58:54.082Z,0.00
2018-07-30T01:59:54.067Z,0.00
2018-07-30T02:00:54.059Z,0.00
2018-07-30T02:01:54.114Z,0.00
2018-07-30T02:02:54.041Z,0.00
2018-07-30T02:03:54.026Z,0.00
2018-07-30T02:04:54.031Z,0.00
2018-07-30T02:05:54.009Z,0.00
2018-07-30T02:06:54.056Z,0.00
2018-07-30T02:07:53.986Z,0.00
2018-07-30T02:08:53.976Z,0.00
2018-07-30T02:09:53.962Z,0.00
2018-07-30T02:10:53.956Z,0.00
2018-07-30T02:11:54.011Z,0.00
2018-07-30T02:12:53.929Z,0.00
2018-07-30T02:13:53.918Z,0.00
2018-07-30T02:14:53.912Z,0.00
2018-07-30T02:15:53.898Z,0.00
2018-07-30T02:16:53.961Z,0.00
2018-07-30T02:17:53.876Z,0.00
2018-07-30T02:18:53.865Z,0.00
2018-07-30T02:19:54.578Z,0.00
2018-07-30T02:20:53.848Z,0.00
2018-07-30T02:21:53.838Z,0.00
2018-07-30T02:22:53.892Z,0.00
2018-07-30T02:23:53.813Z,0.00
2018-07-30T02:24:53.807Z,0.00
2018-07-30T02:25:53.793Z,0.00
2018-07-30T02:26:53.783Z,0.00
2018-07-30T02:27:53.838Z,0.00
2018-07-30T02:28:53.766Z,0.00
2018-07-30T02:29:53.755Z,0.00
2018-07-30T02:30:53.745Z,0.00
2018-07-30T02:31:53.730Z,0.00
2018-07-30T02:32:53.793Z,0.00
2018-07-30T02:33:53.709Z,0.00
2018-07-30T02:34:53.700Z,0.00
2018-07-30T02:35:53.686Z,0.00
2018-07-30T02:36:53.681Z,0.00
2018-07-30T02:37:53.738Z,0.00
2018-07-30T02:38:53.655Z,0.00
2018-07-30T02:39:53.647Z,0.00
2018-07-30T02:40:54.577Z,0.00
2018-07-30T02:41:53.625Z,0.00
2018-07-30T02:42:53.688Z,0.00
2018-07-30T02:43:53.603Z,0.00
2018-07-30T02:44:53.592Z,0.00
2018-07-30T02:45:53.583Z,0.00
2018-07-30T02:46:53.573Z,0.00
2018-07-30T02:47:53.630Z,0.00
2018-07-30T02:48:53.550Z,0.00
2018-07-30T02:49:53.541Z,0.00
2018-07-30T02:50:53.530Z,0.00
2018-07-30T02:51:53.521Z,0.00
2018-07-30T02:52:53.575Z,0.00
2018-07-30T02:53:53.502Z,0.00
2018-07-30T02:54:53.489Z,0.00
2018-07-30T02:55:53.475Z,0.00
2018-07-30T02:56:53.467Z,0.00
2018-07-30T02:57:53.517Z,0.00
2018-07-30T02:58:53.446Z,0.00
2018-07-30T02:59:53.437Z,0.00
2018-07-30T03:00:53.425Z,0.00
2018-07-30T03:01:54.077Z,0.00
2018-07-30T03:02:53.469Z,0.00
2018-07-30T03:03:53.392Z,0.00
2018-07-30T03:04:53.394Z,0.00
2018-07-30T03:05:53.373Z,0.00
2018-07-30T03:06:53.362Z,0.00
2018-07-30T03:07:53.417Z,0.00
2018-07-30T03:08:53.344Z,0.00
2018-07-30T03:09:53.329Z,0.00
2018-07-30T03:10:53.318Z,0.00
2018-07-30T03:11:53.307Z,0.00
2018-07-30T03:12:53.373Z,0.00
2018-07-30T03:13:53.290Z,0.00
2018-07-30T03:14:53.276Z,0.00
2018-07-30T03:15:53.265Z,0.00
2018-07-30T03:16:53.254Z,4.00
2018-07-30T03:17:53.316Z,4.00
2018-07-30T03:18:53.237Z,4.00
2018-07-30T03:19:53.224Z,0.00
2018-07-30T03:20:53.215Z,4.00
2018-07-30T03:21:53.205Z,4.00
2018-07-30T03:22:53.655Z,8.00
2018-07-30T03:23:53.185Z,4.00
2018-07-30T03:24:53.174Z,8.00
2018-07-30T03:25:53.163Z,8.00
2018-07-30T03:26:53.152Z,8.00
2018-07-30T03:27:53.207Z,8.00
2018-07-30T03:28:53.231Z,12.00
2018-07-30T03:29:53.121Z,12.00
2018-07-30T03:30:53.108Z,16.00
2018-07-30T03:31:53.096Z,20.00
2018-07-30T03:32:53.155Z,20.00
2018-07-30T03:33:53.075Z,24.00
2018-07-30T03:34:53.067Z,28.00
2018-07-30T03:35:53.055Z,36.00
2018-07-30T03:36:53.044Z,40.00
2018-07-30T03:37:53.102Z,44.00
2018-07-30T03:38:53.024Z,52.00
2018-07-30T03:39:53.013Z,56.00
2018-07-30T03:40:53.003Z,68.00
2018-07-30T03:41:52.995Z,76.00
2018-07-30T03:43:01.692Z,88.00
2018-07-30T03:44:00.496Z,100.00
2018-07-30T03:45:22.049Z,112.00
2018-07-30T03:45:52.950Z,124.00
2018-07-30T03:46:52.939Z,140.00
2018-07-30T03:47:53.026Z,152.00
2018-07-30T03:48:52.919Z,172.00
2018-07-30T03:49:52.919Z,184.00
2018-07-30T03:50:52.895Z,204.00
2018-07-30T03:51:52.883Z,228.00
2018-07-30T03:52:52.942Z,248.00
2018-07-30T03:53:52.864Z,272.00
2018-07-30T03:54:52.853Z,292.00
2018-07-30T03:55:52.845Z,316.00
2018-07-30T03:56:52.830Z,340.00
2018-07-30T03:57:52.823Z,368.00
2018-07-30T03:58:53.265Z,392.00
2018-07-30T03:59:52.802Z,420.00
2018-07-30T04:00:52.792Z,444.00
2018-07-30T04:01:52.784Z,476.00
2018-07-30T04:02:52.769Z,500.00
2018-07-30T04:03:52.825Z,532.00
2018-07-30T04:04:52.750Z,560.00
2018-07-30T04:05:52.741Z,592.00
2018-07-30T04:06:52.726Z,620.00
2018-07-30T04:07:52.724Z,652.00
2018-07-30T04:08:52.770Z,684.00
2018-07-30T04:09:52.695Z,712.00
2018-07-30T04:10:52.687Z,744.00
2018-07-30T04:11:52.681Z,776.00
2018-07-30T04:12:52.664Z,812.00
2018-07-30T04:13:52.718Z,864.00
2018-07-30T04:14:52.640Z,932.00
2018-07-30T04:15:52.632Z,972.00
2018-07-30T04:16:52.622Z,984.00
2018-07-30T04:17:52.609Z,984.00
2018-07-30T04:18:52.667Z,1000.00
2018-07-30T04:19:52.590Z,1036.00
2018-07-30T04:20:52.576Z,1092.00
2018-07-30T04:21:52.565Z,1156.00
2018-07-30T04:22:52.554Z,1164.00
2018-07-30T04:23:52.612Z,1164.00
2018-07-30T04:24:52.541Z,1192.00
2018-07-30T04:25:52.526Z,1272.00
2018-07-30T04:26:52.516Z,1408.00
2018-07-30T04:27:52.503Z,1548.00
2018-07-30T04:28:52.560Z,1684.00
2018-07-30T04:29:52.482Z,1768.00
2018-07-30T04:30:52.493Z,1796.00
2018-07-30T04:31:52.460Z,1836.00
2018-07-30T04:32:52.448Z,1868.00
2018-07-30T04:33:52.506Z,1904.00
2018-07-30T04:34:52.429Z,1928.00
2018-07-30T04:35:52.419Z,1952.00
2018-07-30T04:36:52.408Z,1992.00
2018-07-30T04:37:52.411Z,2056.00
2018-07-30T04:38:52.451Z,2104.00
2018-07-30T04:39:52.377Z,2172.00
2018-07-30T04:40:52.362Z,2236.00
2018-07-30T04:41:52.355Z,2308.00
2018-07-30T04:42:52.343Z,2416.00
2018-07-30T04:43:52.415Z,2512.00
2018-07-30T04:44:52.323Z,2508.00
2018-07-30T04:45:52.313Z,2560.00
2018-07-30T04:46:52.299Z,2628.00
2018-07-30T04:47:52.296Z,2680.00
2018-07-30T04:48:52.348Z,2788.00
2018-07-30T04:49:52.271Z,2940.00
2018-07-30T04:50:52.260Z,3016.00
2018-07-30T04:51:52.249Z,2984.00
2018-07-30T04:52:52.240Z,2932.00
2018-07-30T04:53:52.288Z,2912.00
2018-07-30T04:54:52.216Z,2944.00
2018-07-30T04:55:52.205Z,2996.00
2018-07-30T04:56:52.210Z,3012.00
2018-07-30T04:57:52.196Z,3056.00
2018-07-30T04:58:52.240Z,3128.00
2018-07-30T04:59:52.164Z,3204.00
2018-07-30T05:00:52.158Z,3284.00
2018-07-30T05:01:52.141Z,3368.00
2018-07-30T05:02:52.133Z,3512.00
2018-07-30T05:03:52.220Z,3736.00
2018-07-30T05:04:52.108Z,3968.00
2018-07-30T05:05:52.108Z,3988.00
2018-07-30T05:06:52.094Z,3784.00
2018-07-30T05:07:52.078Z,3636.00
2018-07-30T05:08:52.258Z,3584.00
2018-07-30T05:09:52.056Z,3592.00
2018-07-30T05:10:52.045Z,3664.00
2018-07-30T05:11:52.034Z,3796.00
2018-07-30T05:12:52.026Z,3872.00
2018-07-30T05:13:52.095Z,3892.00
2018-07-30T05:14:52.014Z,3872.00
2018-07-30T05:15:51.998Z,3872.00
2018-07-30T05:16:51.984Z,3932.00
2018-07-30T05:17:51.973Z,4028.00
2018-07-30T05:18:52.031Z,4192.00
2018-07-30T05:19:51.951Z,4392.00
2018-07-30T05:20:51.948Z,4624.00
2018-07-30T05:21:51.937Z,4936.00
2018-07-30T05:22:51.920Z,5116.00
2018-07-30T05:23:51.975Z,4940.00
2018-07-30T05:24:51.898Z,4588.00
2018-07-30T05:25:51.906Z,4484.00
2018-07-30T05:26:51.934Z,4384.00
2018-07-30T05:27:51.873Z,4320.00
2018-07-30T05:28:51.925Z,4220.00
2018-07-30T05:29:52.675Z,4260.00
2018-07-30T05:30:51.841Z,4364.00
2018-07-30T05:31:51.826Z,4488.00
2018-07-30T05:32:51.818Z,4672.00
2018-07-30T05:33:51.889Z,4856.00
2018-07-30T05:34:51.794Z,5228.00
2018-07-30T05:35:51.782Z,5656.00
2018-07-30T05:36:51.774Z,5928.00
2018-07-30T05:37:51.762Z,6040.00
2018-07-30T05:38:51.822Z,6060.00
2018-07-30T05:39:51.742Z,5900.00
2018-07-30T05:40:51.737Z,5652.00
2018-07-30T05:41:52.675Z,5440.00
2018-07-30T05:42:51.786Z,5192.00
2018-07-30T05:43:51.701Z,4972.00
2018-07-30T05:44:51.751Z,5148.00
2018-07-30T05:45:51.685Z,5612.00
2018-07-30T05:46:51.674Z,6600.00
2018-07-30T05:47:51.663Z,6256.00
2018-07-30T05:48:51.654Z,11024.00
2018-07-30T05:49:51.704Z,8300.00
2018-07-30T05:50:52.177Z,5856.00
2018-07-30T05:51:51.618Z,13268.00
2018-07-30T05:52:51.618Z,11056.00
2018-07-30T05:53:51.601Z,20640.00
2018-07-30T05:54:51.657Z,15200.00
2018-07-30T05:55:51.574Z,7896.00
2018-07-30T05:56:51.570Z,9052.00
2018-07-30T05:57:51.555Z,7412.00
2018-07-30T05:58:51.559Z,8236.00
2018-07-30T05:59:51.787Z,10520.00
2018-07-30T06:00:51.524Z,11460.00
2018-07-30T06:01:51.514Z,16512.00
2018-07-30T06:02:59.078Z,24640.00
2018-07-30T06:03:51.495Z,23296.00
2018-07-30T06:04:51.543Z,19872.00
2018-07-30T06:05:51.471Z,20032.00
2018-07-30T06:06:51.461Z,14432.00
2018-07-30T06:07:51.447Z,13672.00
2018-07-30T06:08:51.441Z,13932.00
2018-07-30T06:09:51.496Z,13228.00
2018-07-30T06:10:51.417Z,23872.00
2018-07-30T06:11:51.408Z,13380.00
2018-07-30T06:12:51.394Z,12232.00
2018-07-30T06:13:51.383Z,11768.00
2018-07-30T06:14:51.446Z,11056.00
2018-07-30T06:15:51.363Z,10584.00
2018-07-30T06:16:51.355Z,10252.00
2018-07-30T06:17:51.344Z,10276.00
2018-07-30T06:18:51.336Z,10536.00
2018-07-30T06:19:51.388Z,10644.00
2018-07-30T06:20:51.365Z,10756.00
2018-07-30T06:21:51.303Z,10952.00
2018-07-30T06:22:51.298Z,11408.00
2018-07-30T06:23:52.213Z,12012.00
2018-07-30T06:24:51.338Z,12436.00
2018-07-30T06:25:51.263Z,12908.00
2018-07-30T06:26:51.256Z,13400.00
2018-07-30T06:27:51.242Z,13976.00
2018-07-30T06:28:51.228Z,14716.00
2018-07-30T06:29:51.288Z,20000.00
2018-07-30T06:30:51.229Z,17568.00
2018-07-30T06:31:51.259Z,18848.00
2018-07-30T06:32:51.189Z,20000.00
2018-07-30T06:33:51.189Z,21728.00
2018-07-30T06:34:51.230Z,26016.00
2018-07-30T06:35:51.154Z,27040.00
2018-07-30T06:36:51.147Z,25248.00
2018-07-30T06:37:51.146Z,40992.00
2018-07-30T06:38:51.125Z,40128.00
2018-07-30T06:39:51.180Z,42048.00
2018-07-30T06:40:51.106Z,37184.00
2018-07-30T06:41:51.092Z,29728.00
2018-07-30T06:42:51.091Z,31232.00
2018-07-30T06:43:51.074Z,25824.00
2018-07-30T06:44:51.289Z,34208.00
2018-07-30T06:45:51.054Z,46304.00
2018-07-30T06:46:51.039Z,19136.00
2018-07-30T06:47:51.087Z,18304.00
2018-07-30T06:48:51.027Z,17792.00
2018-07-30T06:49:51.081Z,17824.00
2018-07-30T06:50:51.002Z,17728.00
2018-07-30T06:51:51.003Z,17952.00
2018-07-30T06:52:50.981Z,17792.00
2018-07-30T06:53:50.970Z,18368.00
2018-07-30T06:54:51.027Z,18912.00
2018-07-30T06:55:50.947Z,18208.00
2018-07-30T06:56:50.944Z,17568.00
2018-07-30T06:57:50.936Z,17568.00
2018-07-30T06:58:50.919Z,18112.00
2018-07-30T06:59:50.977Z,18656.00
2018-07-30T07:00:50.901Z,19392.00
2018-07-30T07:01:50.886Z,20128.00
2018-07-30T07:02:50.881Z,22176.00
2018-07-30T07:03:50.894Z,20960.00
2018-07-30T07:04:50.924Z,20704.00
2018-07-30T07:05:51.712Z,18336.00
2018-07-30T07:06:50.843Z,17632.00
2018-07-30T07:07:50.828Z,15516.00
2018-07-30T07:08:50.815Z,13532.00
2018-07-30T07:09:50.879Z,12944.00
2018-07-30T07:10:50.839Z,13804.00
2018-07-30T07:11:50.803Z,14804.00
2018-07-30T07:12:50.778Z,15952.00
2018-07-30T07:13:50.767Z,16144.00
2018-07-30T07:14:50.820Z,17984.00
2018-07-30T07:15:50.758Z,17568.00
2018-07-30T07:16:50.786Z,18080.00
2018-07-30T07:17:50.723Z,19104.00
2018-07-30T07:18:50.715Z,19968.00
2018-07-30T07:19:50.781Z,22144.00
2018-07-30T07:20:50.693Z,21632.00
2018-07-30T07:21:50.715Z,21792.00
2018-07-30T07:22:50.674Z,21696.00
2018-07-30T07:23:50.662Z,19104.00
2018-07-30T07:24:50.667Z,18016.00
2018-07-30T07:25:50.713Z,17472.00
2018-07-30T07:26:51.222Z,19136.00
2018-07-30T07:27:50.637Z,24000.00
2018-07-30T07:28:58.716Z,24512.00
2018-07-30T07:29:58.794Z,20736.00
2018-07-30T07:30:58.726Z,24288.00
2018-07-30T07:31:50.588Z,68800.00
2018-07-30T07:32:58.640Z,61664.00
2018-07-30T07:33:50.564Z,44672.00
2018-07-30T07:34:50.584Z,54080.00
2018-07-30T07:35:50.599Z,64800.00
2018-07-30T07:36:58.662Z,50880.00
2018-07-30T07:38:00.103Z,67232.00
2018-07-30T07:39:01.785Z,71328.00
2018-07-30T07:39:59.961Z,61760.00
2018-07-30T07:40:50.557Z,34656.00
2018-07-30T07:42:02.073Z,42336.00
2018-07-30T07:42:50.484Z,36064.00
2018-07-30T07:43:50.465Z,33408.00
2018-07-30T07:44:50.513Z,29216.00
2018-07-30T07:45:50.519Z,27840.00
2018-07-30T07:46:50.429Z,27936.00
2018-07-30T07:47:50.450Z,28992.00
2018-07-30T07:48:50.410Z,30304.00
2018-07-30T07:49:50.398Z,30528.00
2018-07-30T07:50:50.605Z,34720.00
2018-07-30T07:51:50.381Z,37568.00
2018-07-30T07:52:50.371Z,55456.00
2018-07-30T07:53:50.359Z,35168.00
2018-07-30T07:54:50.348Z,34592.00
2018-07-30T07:55:50.409Z,38208.00
2018-07-30T07:56:50.329Z,32992.00
2018-07-30T07:57:50.323Z,30208.00
2018-07-30T07:58:50.309Z,28960.00
2018-07-30T07:59:50.301Z,28352.00
2018-07-30T08:00:50.576Z,28352.00
2018-07-30T08:01:50.281Z,28448.00
2018-07-30T08:02:50.274Z,28512.00
2018-07-30T08:03:50.990Z,28768.00
2018-07-30T08:04:50.250Z,29696.00
2018-07-30T08:05:50.306Z,32800.00
2018-07-30T08:06:50.232Z,33216.00
2018-07-30T08:07:50.220Z,33280.00
2018-07-30T08:08:50.215Z,35648.00
2018-07-30T08:09:50.326Z,39104.00
2018-07-30T08:10:50.316Z,35840.00
2018-07-30T08:11:50.191Z,53248.00
2018-07-30T08:12:50.173Z,46528.00
2018-07-30T08:13:50.162Z,38368.00
2018-07-30T08:14:50.154Z,48384.00
2018-07-30T08:15:50.211Z,43040.00
2018-07-30T08:16:50.134Z,38400.00
2018-07-30T08:17:50.126Z,38720.00
2018-07-30T08:18:50.115Z,40448.00
2018-07-30T08:19:50.103Z,39424.00
2018-07-30T08:20:50.161Z,41472.00
2018-07-30T08:21:50.086Z,51232.00
2018-07-30T08:22:50.073Z,38944.00
2018-07-30T08:23:50.071Z,39456.00
2018-07-30T08:24:50.988Z,40064.00
2018-07-30T08:25:50.119Z,38848.00
2018-07-30T08:26:50.036Z,37216.00
2018-07-30T08:27:50.026Z,37184.00
2018-07-30T08:28:50.015Z,37824.00
2018-07-30T08:29:50.009Z,36928.00
2018-07-30T08:30:50.067Z,36256.00
2018-07-30T08:31:49.989Z,36480.00
2018-07-30T08:32:49.978Z,35552.00
2018-07-30T08:33:49.969Z,34816.00
2018-07-30T08:34:49.956Z,34272.00
2018-07-30T08:35:50.014Z,33024.00
2018-07-30T08:36:49.941Z,32096.00
2018-07-30T08:37:49.939Z,31264.00
2018-07-30T08:38:49.931Z,30880.00
2018-07-30T08:39:49.914Z,30848.00
2018-07-30T08:40:49.964Z,31552.00
2018-07-30T08:41:49.889Z,32608.00
2018-07-30T08:42:49.878Z,34656.00
2018-07-30T08:43:49.870Z,35648.00
2018-07-30T08:44:49.861Z,37984.00
2018-07-30T08:45:50.068Z,44000.00
2018-07-30T08:46:49.847Z,51584.00
2018-07-30T08:47:49.833Z,45024.00
2018-07-30T08:48:49.892Z,46752.00
2018-07-30T08:49:49.811Z,46464.00
2018-07-30T08:50:49.870Z,53760.00
2018-07-30T08:51:49.797Z,49120.00
2018-07-30T08:52:49.789Z,44544.00
2018-07-30T08:53:49.773Z,58592.00
2018-07-30T08:54:49.761Z,51616.00
2018-07-30T08:55:49.822Z,49728.00
2018-07-30T08:56:49.745Z,43648.00
2018-07-30T08:57:49.736Z,44672.00
2018-07-30T08:58:49.744Z,39680.00
2018-07-30T08:59:49.719Z,35840.00
2018-07-30T09:00:49.774Z,35648.00
2018-07-30T09:01:49.700Z,76640.00
2018-07-30T09:02:49.695Z,37920.00
2018-07-30T09:03:49.680Z,44096.00
2018-07-30T09:04:49.672Z,52064.00
2018-07-30T09:05:49.734Z,55488.00
2018-07-30T09:06:50.490Z,84896.00
2018-07-30T09:07:49.644Z,67904.00
2018-07-30T09:08:49.635Z,54688.00
2018-07-30T09:09:49.622Z,53824.00
2018-07-30T09:10:49.616Z,52640.00
2018-07-30T09:11:49.672Z,64992.00
2018-07-30T09:12:49.739Z,54752.00
2018-07-30T09:13:50.492Z,72672.00
2018-07-30T09:14:49.588Z,85024.00
2018-07-30T09:15:49.572Z,89952.00
2018-07-30T09:16:49.627Z,62272.00
2018-07-30T09:17:49.550Z,54592.00
2018-07-30T09:18:49.547Z,53504.00
2018-07-30T09:19:49.535Z,74560.00
2018-07-30T09:20:49.527Z,56128.00
2018-07-30T09:21:49.585Z,58080.00
2018-07-30T09:22:49.507Z,56288.00
2018-07-30T09:23:49.504Z,58144.00
2018-07-30T09:24:49.490Z,55808.00
2018-07-30T09:25:49.482Z,64672.00
2018-07-30T09:26:50.052Z,80704.00
2018-07-30T09:27:50.006Z,58816.00
2018-07-30T09:28:49.454Z,55712.00
2018-07-30T09:29:49.448Z,75808.00
2018-07-30T09:30:49.437Z,65600.00
2018-07-30T09:31:49.501Z,52192.00
2018-07-30T09:32:49.479Z,39552.00
2018-07-30T09:33:49.465Z,33408.00
2018-07-30T09:34:49.412Z,32768.00
2018-07-30T09:35:49.396Z,30272.00
2018-07-30T09:36:49.448Z,28448.00
2018-07-30T09:37:49.395Z,28608.00
2018-07-30T09:38:49.471Z,33248.00
2018-07-30T09:39:49.365Z,40640.00
2018-07-30T09:40:49.350Z,51808.00
2018-07-30T09:41:49.411Z,74208.00
2018-07-30T09:42:49.334Z,116448.00
2018-07-30T09:43:49.327Z,129248.00
2018-07-30T09:44:49.331Z,87072.00
2018-07-30T09:45:49.306Z,122816.00
2018-07-30T09:46:49.377Z,127584.00
2018-07-30T09:47:49.292Z,80192.00
2018-07-30T09:48:49.994Z,66176.00
2018-07-30T09:49:49.275Z,78112.00
2018-07-30T09:50:49.272Z,101856.00
2018-07-30T09:51:49.330Z,124800.00
2018-07-30T09:52:49.252Z,118816.00
2018-07-30T09:53:49.242Z,119008.00
2018-07-30T09:54:49.236Z,116384.00
2018-07-30T09:55:49.229Z,115520.00
2018-07-30T09:56:49.292Z,112384.00
2018-07-30T09:57:49.211Z,111136.00
2018-07-30T09:58:49.202Z,110592.00
2018-07-30T09:59:49.197Z,112256.00
2018-07-30T10:00:49.188Z,113600.00
2018-07-30T10:01:49.246Z,114816.00
2018-07-30T10:02:49.180Z,110688.00
2018-07-30T10:03:49.173Z,114080.00
2018-07-30T10:04:49.171Z,111744.00
2018-07-30T10:05:49.154Z,112960.00
2018-07-30T10:06:49.212Z,113920.00
2018-07-30T10:07:49.140Z,113248.00
2018-07-30T10:08:49.135Z,113536.00
2018-07-30T10:09:49.990Z,112480.00
2018-07-30T10:10:49.121Z,111072.00
2018-07-30T10:11:49.277Z,112032.00
2018-07-30T10:12:49.103Z,111584.00
2018-07-30T10:13:49.100Z,113024.00
2018-07-30T10:14:49.097Z,108960.00
2018-07-30T10:15:49.086Z,108352.00
2018-07-30T10:16:49.152Z,115264.00
2018-07-30T10:17:49.087Z,114112.00
2018-07-30T10:18:49.066Z,114624.00
2018-07-30T10:19:49.068Z,116480.00
2018-07-30T10:20:49.054Z,117280.00
2018-07-30T10:21:49.113Z,121216.00
2018-07-30T10:22:49.043Z,121216.00
2018-07-30T10:23:49.080Z,119840.00
2018-07-30T10:24:49.031Z,122112.00
2018-07-30T10:25:49.026Z,117824.00
2018-07-30T10:26:49.087Z,119808.00
2018-07-30T10:27:49.013Z,102208.00
2018-07-30T10:28:49.024Z,107200.00
2018-07-30T10:29:49.000Z,121152.00
2018-07-30T10:30:50.054Z,52224.00
2018-07-30T10:31:49.057Z,25920.00
2018-07-30T10:32:48.977Z,26912.00
2018-07-30T10:33:48.974Z,27392.00
2018-07-30T10:34:48.976Z,23872.00
2018-07-30T10:35:48.966Z,21184.00
2018-07-30T10:36:49.011Z,23808.00
2018-07-30T10:37:48.941Z,120960.00
2018-07-30T10:38:48.938Z,119648.00
2018-07-30T10:39:48.965Z,118848.00
2018-07-30T10:40:48.945Z,125216.00
2018-07-30T10:41:49.000Z,124256.00
2018-07-30T10:42:48.916Z,121952.00
2018-07-30T10:43:48.957Z,113376.00
2018-07-30T10:44:48.898Z,115168.00
2018-07-30T10:45:48.892Z,106976.00
2018-07-30T10:46:48.950Z,114624.00
2018-07-30T10:47:48.881Z,122592.00
2018-07-30T10:48:48.875Z,119712.00
2018-07-30T10:49:48.863Z,25120.00
2018-07-30T10:50:48.889Z,122368.00
2018-07-30T10:51:49.112Z,120640.00
2018-07-30T10:52:48.849Z,26976.00
2018-07-30T10:53:48.897Z,29760.00
2018-07-30T10:54:56.981Z,117920.00
2018-07-30T10:55:48.872Z,41696.00
2018-07-30T10:56:48.887Z,107520.00
2018-07-30T10:57:48.815Z,114112.00
2018-07-30T10:58:48.830Z,30912.00
2018-07-30T10:59:48.800Z,24448.00
2018-07-30T11:00:48.792Z,20256.00
2018-07-30T11:01:48.866Z,19136.00
2018-07-30T11:02:48.776Z,20864.00
2018-07-30T11:03:48.781Z,20736.00
2018-07-30T11:04:48.766Z,20128.00
2018-07-30T11:05:48.761Z,20896.00
2018-07-30T11:06:48.818Z,29152.00
2018-07-30T11:07:48.764Z,24512.00
2018-07-30T11:08:48.736Z,28864.00
2018-07-30T11:09:48.817Z,98880.00
2018-07-30T11:10:48.722Z,97856.00
2018-07-30T11:11:48.716Z,100032.00
2018-07-30T11:12:48.767Z,98112.00
2018-07-30T11:13:48.690Z,20288.00
2018-07-30T11:14:48.697Z,18400.00
2018-07-30T11:15:49.501Z,18368.00
2018-07-30T11:16:48.668Z,19584.00
2018-07-30T11:17:48.730Z,20736.00
2018-07-30T11:18:48.656Z,21600.00
2018-07-30T11:19:48.643Z,22304.00
2018-07-30T11:20:57.538Z,22112.00
2018-07-30T11:21:56.807Z,22944.00
2018-07-30T11:22:56.753Z,25056.00
2018-07-30T11:23:56.753Z,32064.00
2018-07-30T11:24:56.784Z,27776.00
2018-07-30T11:25:48.672Z,32608.00
2018-07-30T11:26:48.762Z,28096.00
2018-07-30T11:27:48.644Z,26304.00
2018-07-30T11:28:57.001Z,27040.00
2018-07-30T11:29:56.692Z,26912.00
2018-07-30T11:30:56.712Z,25024.00
2018-07-30T11:31:57.120Z,23712.00
2018-07-30T11:32:52.854Z,22112.00
2018-07-30T11:33:56.054Z,21536.00
2018-07-30T11:34:48.512Z,68928.00
2018-07-30T11:35:48.501Z,32096.00
2018-07-30T11:36:48.892Z,25824.00
2018-07-30T11:37:48.552Z,23136.00
2018-07-30T11:38:48.779Z,24000.00
2018-07-30T11:39:48.488Z,99904.00
2018-07-30T11:40:48.670Z,94048.00
2018-07-30T11:41:48.639Z,28864.00
2018-07-30T11:42:48.921Z,54496.00
2018-07-30T11:43:48.627Z,118560.00
2018-07-30T11:44:48.425Z,120096.00
2018-07-30T11:45:48.485Z,23456.00
2018-07-30T11:46:48.414Z,19328.00
2018-07-30T11:47:48.461Z,23264.00
2018-07-30T11:48:48.484Z,20576.00
2018-07-30T11:49:48.407Z,20128.00
2018-07-30T11:50:48.371Z,21248.00
2018-07-30T11:51:48.364Z,26816.00
2018-07-30T11:52:48.427Z,61120.00
2018-07-30T11:53:48.344Z,27968.00
2018-07-30T11:54:50.875Z,28672.00
2018-07-30T11:55:48.335Z,34464.00
2018-07-30T11:56:48.316Z,43392.00
2018-07-30T11:57:49.375Z,127712.00
2018-07-30T11:58:48.302Z,117344.00
2018-07-30T11:59:48.294Z,35136.00
2018-07-30T12:00:48.323Z,29728.00
2018-07-30T12:01:48.336Z,93408.00
2018-07-30T12:02:48.334Z,132704.00
2018-07-30T12:03:48.260Z,67744.00
2018-07-30T12:04:48.257Z,42944.00
2018-07-30T12:05:48.250Z,46496.00
2018-07-30T12:06:48.232Z,34304.00
2018-07-30T12:07:48.326Z,120896.00
2018-07-30T12:08:48.253Z,123200.00
2018-07-30T12:09:48.210Z,119360.00
2018-07-30T12:10:48.203Z,116704.00
2018-07-30T12:11:48.201Z,115840.00
2018-07-30T12:12:48.273Z,116032.00